Time;durP1;ratioP1;P1;durP2;ratioP2;P2;SDS_P1;SDS_P2;PMS_P1;PMS_P2;Temp;Humidity;BMP_temperature;BMP_pressure;BME280_temperature;BME280_humidity;BME280_pressure;Samples;Min_cycle;Max_cycle;Signal;HPM_P1;HPM_P2
2024/03/01 00:01:53;;;;;;;6.93;3.80;;;;;;;;;;5073833;28;20671;-70
2024/03/01 00:04:19;;;;;;;6.25;3.92;;;;;;;;;;5070594;28;20047;-69
2024/03/01 00:06:46;;;;;;;8.00;3.95;;;;;;;;;;5080608;28;20050;-70
2024/03/01 00:09:13;;;;;;;10.70;4.13;;;;;;;;;;5072606;28;20040;-70
2024/03/01 00:11:39;;;;;;;8.00;4.07;;;;;;;;;;5076434;28;20040;-70
2024/03/01 00:14:06;;;;;;;6.95;4.22;;;;;;;;;;5060938;28;20052;-70
2024/03/01 00:16:32;;;;;;;6.72;4.35;;;;;;;;;;5075161;28;20044;-71
2024/03/01 00:18:59;;;;;;;8.13;4.68;;;;;;;;;;5053580;28;20044;-69
2024/03/01 00:21:26;;;;;;;7.82;4.35;;;;;;;;;;5083743;28;20085;-70
2024/03/01 00:23:53;;;;;;;7.05;4.13;;;;;;;;;;5067444;28;21103;-69
2024/03/01 00:26:19;;;;;;;6.45;4.00;;;;;;;;;;5079677;28;20105;-71
2024/03/01 00:28:46;;;;;;;8.95;4.13;;;;;;;;;;5067734;28;20044;-71
2024/03/01 00:31:12;;;;;;;9.00;4.80;;;;;;;;;;5074686;28;20125;-70
2024/03/01 00:33:38;;;;;;;8.68;4.90;;;;;;;;;;5087232;28;20542;-69
2024/03/01 00:36:05;;;;;;;7.78;4.57;;;;;;;;;;5072006;28;20668;-70
2024/03/01 00:38:31;;;;;;;9.77;5.35;;;;;;;;;;5070552;28;20131;-71
2024/03/01 00:40:58;;;;;;;7.03;3.72;;;;;;;;;;5072332;28;20093;-70
2024/03/01 00:43:24;;;;;;;6.78;3.90;;;;;;;;;;5075951;28;20040;-69
2024/03/01 00:45:51;;;;;;;6.85;4.35;;;;;;;;;;5072502;28;20060;-70
2024/03/01 00:48:17;;;;;;;8.25;4.93;;;;;;;;;;5075114;28;20044;-71
2024/03/01 00:50:44;;;;;;;7.18;4.82;;;;;;;;;;5092250;28;20047;-71
2024/03/01 00:53:11;;;;;;;7.68;5.13;;;;;;;;;;5078005;28;20051;-69
2024/03/01 00:55:38;;;;;;;7.70;4.82;;;;;;;;;;5060421;28;20052;-70
2024/03/01 00:58:05;;;;;;;7.35;4.80;;;;;;;;;;5081420;28;20048;-70
2024/03/01 01:00:32;;;;;;;8.50;4.95;;;;;;;;;;5075910;28;20052;-70
2024/03/01 01:02:58;;;;;;;9.13;4.90;;;;;;;;;;5079956;28;20044;-71
2024/03/01 01:05:24;;;;;;;8.15;5.20;;;;;;;;;;5073198;28;20051;-72
2024/03/01 01:07:51;;;;;;;8.95;5.20;;;;;;;;;;5073610;28;20744;-71
2024/03/01 01:10:18;;;;;;;8.38;5.05;;;;;;;;;;5082135;28;20135;-70
2024/03/01 01:12:44;;;;;;;9.70;5.22;;;;;;;;;;5068395;28;20094;-72
2024/03/01 01:15:10;;;;;;;11.88;5.15;;;;;;;;;;5080572;28;20086;-71
2024/03/01 01:17:39;;;;;;;8.38;4.88;;;;;;;;;;5069291;28;20688;-71
2024/03/01 01:20:06;;;;;;;9.18;5.00;;;;;;;;;;5071241;28;20406;-72
2024/03/01 01:22:32;;;;;;;8.50;4.82;;;;;;;;;;5080312;28;20113;-71
2024/03/01 01:24:59;;;;;;;9.18;4.80;;;;;;;;;;5065123;28;20051;-71
2024/03/01 01:27:26;;;;;;;9.38;4.85;;;;;;;;;;5086439;28;20052;-71
2024/03/01 01:29:52;;;;;;;9.10;4.95;;;;;;;;;;5077278;28;20044;-70
2024/03/01 01:32:18;;;;;;;8.35;4.70;;;;;;;;;;5086152;28;20558;-72
2024/03/01 01:34:48;;;;;;;9.43;5.47;;;;;;;;;;5065922;28;20478;-70
2024/03/01 01:37:14;;;;;;;8.57;5.13;;;;;;;;;;5084590;28;20050;-70
2024/03/01 01:39:41;;;;;;;8.38;5.25;;;;;;;;;;5084625;28;20060;-71
2024/03/01 01:42:07;;;;;;;8.07;5.32;;;;;;;;;;5075018;28;20055;-72
2024/03/01 01:44:33;;;;;;;10.95;4.68;;;;;;;;;;5063549;28;20044;-72
2024/03/01 01:47:00;;;;;;;9.07;5.15;;;;;;;;;;5069516;28;20097;-72
2024/03/01 01:49:28;;;;;;;9.15;5.38;;;;;;;;;;5062895;28;20227;-72
2024/03/01 01:51:56;;;;;;;8.80;4.90;;;;;;;;;;5085647;28;20163;-72
2024/03/01 01:54:23;;;;;;;9.25;5.32;;;;;;;;;;5072779;28;20045;-72
2024/03/01 01:56:49;;;;;;;8.38;4.65;;;;;;;;;;5093297;28;20044;-72
2024/03/01 01:59:16;;;;;;;9.70;5.35;;;;;;;;;;5071498;28;20056;-72
2024/03/01 02:01:43;;;;;;;8.50;5.65;;;;;;;;;;5076129;28;20121;-72
2024/03/01 02:04:10;;;;;;;11.17;5.53;;;;;;;;;;5081088;28;20044;-72
2024/03/01 02:06:36;;;;;;;7.07;4.72;;;;;;;;;;5081234;28;20087;-72
2024/03/01 02:09:12;;;;;;;11.15;5.25;;;;;;;;;;5073914;28;20123;-72
2024/03/01 02:11:39;;;;;;;11.52;5.70;;;;;;;;;;5078580;28;20055;-72
2024/03/01 02:14:06;;;;;;;9.70;4.95;;;;;;;;;;5062421;28;20048;-72
2024/03/01 02:16:33;;;;;;;8.98;5.22;;;;;;;;;;5071093;28;20415;-72
2024/03/01 02:19:00;;;;;;;7.45;4.82;;;;;;;;;;5079301;28;20043;-72
2024/03/01 02:21:31;;;;;;;8.95;4.97;;;;;;;;;;5069890;28;20056;-72
2024/03/01 02:23:57;;;;;;;11.75;5.13;;;;;;;;;;5062356;28;20057;-71
2024/03/01 02:26:24;;;;;;;9.90;5.10;;;;;;;;;;5070390;28;20049;-73
2024/03/01 02:28:51;;;;;;;8.63;5.15;;;;;;;;;;5075859;28;20063;-73
2024/03/01 02:31:18;;;;;;;10.07;5.73;;;;;;;;;;5077679;28;20043;-72
2024/03/01 02:33:44;;;;;;;11.65;6.25;;;;;;;;;;5081271;28;20058;-71
2024/03/01 02:36:11;;;;;;;8.63;5.13;;;;;;;;;;5079016;28;20688;-72
2024/03/01 02:38:37;;;;;;;9.52;5.72;;;;;;;;;;5074736;28;20105;-72
2024/03/01 02:41:05;;;;;;;9.45;5.57;;;;;;;;;;5073699;28;20052;-72
2024/03/01 02:43:31;;;;;;;11.38;5.72;;;;;;;;;;5077201;28;20075;-72
2024/03/01 02:45:57;;;;;;;8.75;5.07;;;;;;;;;;5073898;28;20544;-72
2024/03/01 02:48:24;;;;;;;9.57;5.75;;;;;;;;;;5081734;28;20142;-72
2024/03/01 02:50:50;;;;;;;9.68;5.72;;;;;;;;;;5075650;28;20051;-70
2024/03/01 02:53:16;;;;;;;9.43;5.68;;;;;;;;;;5073504;28;20124;-71
2024/03/01 02:55:43;;;;;;;11.13;6.07;;;;;;;;;;5069839;28;20143;-71
2024/03/01 02:58:09;;;;;;;10.75;5.85;;;;;;;;;;5069599;28;20047;-72
2024/03/01 03:00:35;;;;;;;10.65;5.82;;;;;;;;;;5055719;28;20094;-71
2024/03/01 03:03:02;;;;;;;12.43;6.63;;;;;;;;;;5076884;28;20047;-72
2024/03/01 03:05:28;;;;;;;12.35;6.72;;;;;;;;;;5065705;28;20040;-68
2024/03/01 03:07:55;;;;;;;10.77;6.47;;;;;;;;;;5078286;28;20044;-68
2024/03/01 03:10:21;;;;;;;12.05;6.45;;;;;;;;;;5069282;28;20052;-73
2024/03/01 03:12:48;;;;;;;11.07;6.13;;;;;;;;;;5077289;28;20048;-69
2024/03/01 03:15:16;;;;;;;12.57;6.88;;;;;;;;;;5085111;28;20056;-72
2024/03/01 03:17:42;;;;;;;11.00;6.95;;;;;;;;;;5072059;28;20492;-71
2024/03/01 03:20:12;;;;;;;14.00;7.65;;;;;;;;;;5057337;28;20048;-71
2024/03/01 03:22:39;;;;;;;12.43;7.57;;;;;;;;;;5072899;28;20052;-71
2024/03/01 03:25:06;;;;;;;12.63;6.78;;;;;;;;;;5064640;28;20052;-71
2024/03/01 03:27:32;;;;;;;13.60;7.40;;;;;;;;;;5073695;28;20040;-71
2024/03/01 03:29:59;;;;;;;12.50;7.05;;;;;;;;;;5072813;28;20049;-70
2024/03/01 03:32:25;;;;;;;13.13;7.78;;;;;;;;;;5078586;28;20044;-71
2024/03/01 03:34:52;;;;;;;12.45;7.10;;;;;;;;;;5056977;28;20048;-71
2024/03/01 03:37:20;;;;;;;11.50;7.57;;;;;;;;;;5048535;28;20060;-68
2024/03/01 03:39:46;;;;;;;13.25;7.13;;;;;;;;;;5065586;28;20048;-71
2024/03/01 03:42:13;;;;;;;13.98;7.13;;;;;;;;;;5063225;28;20052;-70
2024/03/01 03:44:40;;;;;;;12.02;6.53;;;;;;;;;;5078321;28;20055;-71
2024/03/01 03:47:06;;;;;;;13.82;7.28;;;;;;;;;;5068158;28;20048;-71
2024/03/01 03:49:33;;;;;;;12.93;7.20;;;;;;;;;;5071117;28;20072;-72
2024/03/01 03:52:00;;;;;;;14.48;7.68;;;;;;;;;;5074645;28;20051;-71
2024/03/01 03:54:27;;;;;;;11.65;7.15;;;;;;;;;;5089896;28;20056;-72
2024/03/01 03:56:53;;;;;;;12.75;8.00;;;;;;;;;;5088588;28;20089;-71
2024/03/01 03:59:19;;;;;;;11.18;7.00;;;;;;;;;;5075739;28;20109;-71
2024/03/01 04:01:49;;;;;;;16.38;7.70;;;;;;;;;;5068948;28;20465;-71
2024/03/01 04:04:16;;;;;;;12.18;7.50;;;;;;;;;;5077038;28;20859;-71
2024/03/01 04:06:42;;;;;;;15.85;7.93;;;;;;;;;;5072719;28;20057;-71
2024/03/01 04:09:12;;;;;;;11.30;7.28;;;;;;;;;;5059132;28;20136;-71
2024/03/01 04:11:40;;;;;;;12.85;7.40;;;;;;;;;;5083841;28;20052;-71
2024/03/01 04:14:07;;;;;;;;;;;;;;;;;;5083380;28;20055;-72
2024/03/01 04:16:34;;;;;;;13.13;7.78;;;;;;;;;;5071562;28;19931;-71
2024/03/01 04:19:00;;;;;;;12.68;7.47;;;;;;;;;;5088092;28;20464;-71
2024/03/01 04:21:27;;;;;;;12.15;7.38;;;;;;;;;;5079112;28;20044;-71
2024/03/01 04:23:53;;;;;;;10.30;6.60;;;;;;;;;;5091424;28;20052;-71
2024/03/01 04:26:19;;;;;;;10.95;6.72;;;;;;;;;;5074304;28;20086;-70
2024/03/01 04:28:46;;;;;;;12.52;7.53;;;;;;;;;;5072224;28;20904;-71
2024/03/01 04:31:13;;;;;;;12.02;6.22;;;;;;;;;;5070345;28;20101;-71
2024/03/01 04:33:39;;;;;;;13.60;7.18;;;;;;;;;;5083540;28;20333;-71
2024/03/01 04:36:06;;;;;;;15.27;7.97;;;;;;;;;;5076060;28;20097;-71
2024/03/01 04:38:33;;;;;;;9.50;5.90;;;;;;;;;;5083736;28;20051;-71
2024/03/01 04:40:59;;;;;;;6.65;3.85;;;;;;;;;;5081364;28;20086;-70
2024/03/01 04:43:26;;;;;;;5.28;3.28;;;;;;;;;;5080608;28;20053;-71
2024/03/01 04:45:53;;;;;;;5.28;3.78;;;;;;;;;;5053121;28;20041;-71
2024/03/01 04:48:20;;;;;;;5.80;4.43;;;;;;;;;;5075426;28;20399;-71
2024/03/01 04:50:46;;;;;;;5.80;4.30;;;;;;;;;;5081298;28;20044;-70
2024/03/01 04:53:12;;;;;;;6.63;4.82;;;;;;;;;;5072289;28;20489;-72
2024/03/01 04:55:39;;;;;;;7.25;4.10;;;;;;;;;;5068123;28;20056;-71
2024/03/01 04:58:05;;;;;;;6.05;3.97;;;;;;;;;;5069506;28;20051;-71
2024/03/01 05:00:33;;;;;;;6.57;4.28;;;;;;;;;;5076730;28;20928;-71
2024/03/01 05:03:06;;;;;;;7.27;4.23;;;;;;;;;;5074079;28;20109;-71
2024/03/01 05:05:33;;;;;;;4.97;3.80;;;;;;;;;;5074472;28;20495;-71
2024/03/01 05:08:00;;;;;;;6.00;3.83;;;;;;;;;;5073464;28;20136;-72
2024/03/01 05:10:26;;;;;;;5.28;3.63;;;;;;;;;;5079425;28;20048;-72
2024/03/01 05:12:53;;;;;;;5.50;3.60;;;;;;;;;;5053115;28;20441;-71
2024/03/01 05:15:19;;;;;;;5.82;3.58;;;;;;;;;;5062833;28;20071;-70
2024/03/01 05:17:46;;;;;;;5.03;3.45;;;;;;;;;;5080161;28;20075;-71
2024/03/01 05:20:13;;;;;;;6.55;3.60;;;;;;;;;;5078386;28;20616;-70
2024/03/01 05:22:40;;;;;;;6.05;3.60;;;;;;;;;;5086952;28;20052;-72
2024/03/01 05:25:16;;;;;;;6.38;3.63;;;;;;;;;;5049429;28;20052;-71
2024/03/01 05:27:45;;;;;;;7.15;3.60;;;;;;;;;;5063339;28;20408;-70
2024/03/01 05:30:12;;;;;;;6.10;3.22;;;;;;;;;;5099609;28;20043;-71
2024/03/01 05:32:43;;;;;;;4.00;2.67;;;;;;;;;;5072033;28;20818;-72
2024/03/01 05:35:09;;;;;;;3.58;2.17;;;;;;;;;;5072998;28;20419;-71
2024/03/01 05:37:36;;;;;;;4.22;2.47;;;;;;;;;;5072597;28;20044;-70
2024/03/01 05:40:03;;;;;;;4.75;2.47;;;;;;;;;;5062390;28;20427;-70
2024/03/01 05:42:30;;;;;;;4.68;2.80;;;;;;;;;;5083712;28;20454;-70
2024/03/01 05:44:56;;;;;;;4.30;2.97;;;;;;;;;;5079975;28;20536;-72
2024/03/01 05:47:23;;;;;;;4.53;2.40;;;;;;;;;;5075306;28;20047;-70
2024/03/01 05:49:49;;;;;;;5.32;2.50;;;;;;;;;;5074572;28;20056;-72
2024/03/01 05:52:16;;;;;;;4.45;2.28;;;;;;;;;;5080114;28;20051;-70
2024/03/01 05:54:42;;;;;;;3.67;2.28;;;;;;;;;;5061418;28;20040;-70
2024/03/01 05:57:10;;;;;;;4.85;2.40;;;;;;;;;;5064391;28;20094;-71
2024/03/01 05:59:36;;;;;;;3.60;2.63;;;;;;;;;;5068254;28;20056;-71
2024/03/01 06:02:04;;;;;;;4.88;2.58;;;;;;;;;;5075519;28;20469;-71
2024/03/01 06:04:31;;;;;;;6.25;3.35;;;;;;;;;;5074750;28;20051;-70
2024/03/01 06:06:57;;;;;;;4.40;2.83;;;;;;;;;;5068722;28;20545;-71
2024/03/01 06:09:24;;;;;;;7.05;3.20;;;;;;;;;;5078028;28;20063;-71
2024/03/01 06:11:50;;;;;;;7.38;3.00;;;;;;;;;;5081110;28;20105;-70
2024/03/01 06:14:18;;;;;;;6.90;3.45;;;;;;;;;;5071605;28;20557;-72
2024/03/01 06:16:45;;;;;;;4.57;3.50;;;;;;;;;;5061670;28;20055;-70
2024/03/01 06:19:11;;;;;;;5.43;3.40;;;;;;;;;;5075025;28;20052;-70
2024/03/01 06:21:38;;;;;;;6.82;3.40;;;;;;;;;;5069363;28;20040;-72
2024/03/01 06:24:04;;;;;;;5.80;3.45;;;;;;;;;;5074231;28;20074;-70
2024/03/01 06:26:31;;;;;;;6.45;3.70;;;;;;;;;;5066059;28;20048;-71
2024/03/01 06:28:57;;;;;;;7.90;4.60;;;;;;;;;;5073995;28;20052;-72
2024/03/01 06:31:24;;;;;;;8.35;4.68;;;;;;;;;;5071970;28;20052;-71
2024/03/01 06:33:50;;;;;;;7.30;4.75;;;;;;;;;;5067132;28;20052;-72
2024/03/01 06:36:17;;;;;;;10.13;4.90;;;;;;;;;;5074124;28;20070;-71
2024/03/01 06:38:43;;;;;;;7.45;4.97;;;;;;;;;;5069018;28;20110;-71
2024/03/01 06:41:10;;;;;;;8.02;4.70;;;;;;;;;;5088828;28;20055;-72
2024/03/01 06:43:36;;;;;;;11.68;5.22;;;;;;;;;;5060680;28;20119;-72
2024/03/01 06:46:03;;;;;;;8.02;4.40;;;;;;;;;;5071666;28;20044;-71
2024/03/01 06:48:30;;;;;;;6.00;3.40;;;;;;;;;;5068844;28;20048;-71
2024/03/01 06:50:56;;;;;;;7.35;3.00;;;;;;;;;;5071102;28;20401;-71
2024/03/01 06:53:22;;;;;;;6.72;3.63;;;;;;;;;;5069024;28;20110;-71
2024/03/01 06:55:49;;;;;;;5.95;2.55;;;;;;;;;;5072720;28;20047;-71
2024/03/01 06:58:15;;;;;;;4.35;2.30;;;;;;;;;;5067869;28;20084;-71
2024/03/01 07:00:46;;;;;;;4.85;2.20;;;;;;;;;;5073681;28;20049;-71
2024/03/01 07:03:14;;;;;;;8.60;2.55;;;;;;;;;;5068191;28;20127;-71
2024/03/01 07:05:40;;;;;;;5.43;2.25;;;;;;;;;;5069025;28;20045;-71
2024/03/01 07:08:07;;;;;;;4.80;2.70;;;;;;;;;;5072894;28;20123;-71
2024/03/01 07:10:33;;;;;;;6.85;2.72;;;;;;;;;;5080077;28;20075;-72
2024/03/01 07:13:00;;;;;;;5.53;2.75;;;;;;;;;;5072623;28;20061;-72
2024/03/01 07:15:27;;;;;;;6.25;2.63;;;;;;;;;;5070240;28;20485;-72
2024/03/01 07:17:55;;;;;;;5.80;2.70;;;;;;;;;;5079352;28;20138;-71
2024/03/01 07:20:22;;;;;;;6.25;2.97;;;;;;;;;;5067640;28;20449;-71
2024/03/01 07:22:49;;;;;;;5.60;3.08;;;;;;;;;;5091224;28;20067;-71
2024/03/01 07:25:15;;;;;;;7.90;3.08;;;;;;;;;;5070839;28;20053;-71
2024/03/01 07:27:42;;;;;;;7.00;3.33;;;;;;;;;;5081967;28;20059;-71
2024/03/01 07:30:09;;;;;;;6.20;2.83;;;;;;;;;;5076532;28;20052;-72
2024/03/01 07:32:35;;;;;;;7.35;3.05;;;;;;;;;;5076030;28;20137;-71
2024/03/01 07:35:05;;;;;;;7.28;2.83;;;;;;;;;;5070325;28;20059;-69
2024/03/01 07:37:32;;;;;;;3.60;2.75;;;;;;;;;;5081502;28;20048;-71
2024/03/01 07:39:58;;;;;;;6.65;3.00;;;;;;;;;;5085004;28;20060;-71
2024/03/01 07:42:25;;;;;;;9.55;3.25;;;;;;;;;;5050946;28;20201;-71
2024/03/01 07:44:55;;;;;;;6.15;3.10;;;;;;;;;;5077983;28;20488;-72
2024/03/01 07:47:25;;;;;;;7.18;3.95;;;;;;;;;;5056221;28;20499;-71
2024/03/01 07:49:51;;;;;;;6.00;3.67;;;;;;;;;;5074940;28;20044;-71
2024/03/01 07:52:18;;;;;;;8.73;3.63;;;;;;;;;;5078859;28;20047;-71
2024/03/01 07:54:44;;;;;;;6.25;4.22;;;;;;;;;;5050450;28;20047;-71
2024/03/01 07:57:11;;;;;;;7.43;3.80;;;;;;;;;;5073884;28;20398;-71
2024/03/01 07:59:38;;;;;;;9.38;3.88;;;;;;;;;;5056130;28;20074;-72
2024/03/01 08:02:08;;;;;;;7.22;3.75;;;;;;;;;;5076539;28;20094;-71
2024/03/01 08:04:34;;;;;;;6.45;3.90;;;;;;;;;;5077404;28;20193;-71
2024/03/01 08:07:02;;;;;;;8.45;3.85;;;;;;;;;;5072222;28;20472;-71
2024/03/01 08:09:32;;;;;;;8.60;4.18;;;;;;;;;;5079650;28;20063;-72
2024/03/01 08:11:58;;;;;;;10.55;4.78;;;;;;;;;;5072263;28;20435;-71
2024/03/01 08:14:30;;;;;;;12.10;5.22;;;;;;;;;;5073824;28;20044;-71
2024/03/01 08:16:57;;;;;;;9.45;5.05;;;;;;;;;;5072569;28;20089;-72
2024/03/01 08:19:41;;;;;;;12.52;6.00;;;;;;;;;;5078295;28;20048;-70
2024/03/01 08:22:15;;;;;;;10.07;5.80;;;;;;;;;;5078764;28;20101;-71
2024/03/01 08:24:46;;;;;;;10.20;5.82;;;;;;;;;;5062456;28;20052;-70
2024/03/01 08:27:27;;;;;;;10.43;6.40;;;;;;;;;;5067888;28;20050;-72
2024/03/01 08:29:56;;;;;;;13.80;8.82;;;;;;;;;;5069301;28;20055;-71
2024/03/01 08:32:25;;;;;;;10.68;7.63;;;;;;;;;;5065342;28;20044;-71
2024/03/01 08:34:55;;;;;;;12.77;8.25;;;;;;;;;;5073781;28;21036;-70
2024/03/01 08:37:27;;;;;;;13.55;8.15;;;;;;;;;;5049430;28;20055;-71
2024/03/01 08:39:54;;;;;;;13.25;8.10;;;;;;;;;;5073825;28;20155;-71
2024/03/01 08:42:21;;;;;;;12.02;8.20;;;;;;;;;;5082895;28;20048;-72
2024/03/01 08:44:59;;;;;;;15.40;8.73;;;;;;;;;;5079922;28;20121;-72
2024/03/01 08:47:27;;;;;;;11.77;7.85;;;;;;;;;;5065914;28;20040;-71
2024/03/01 08:50:12;;;;;;;12.40;8.20;;;;;;;;;;5076948;28;20040;-71
2024/03/01 08:52:38;;;;;;;12.43;8.93;;;;;;;;;;5075632;28;20055;-71
2024/03/01 08:55:17;;;;;;;16.15;9.38;;;;;;;;;;5076022;28;20591;-71
2024/03/01 08:57:44;;;;;;;12.52;8.30;;;;;;;;;;5085881;28;20035;-71
2024/03/01 09:00:31;;;;;;;11.93;7.95;;;;;;;;;;5086377;28;20047;-72
2024/03/01 09:02:57;;;;;;;13.18;8.93;;;;;;;;;;5075935;28;20078;-71
2024/03/01 09:05:26;;;;;;;11.10;7.60;;;;;;;;;;5068113;28;20052;-71
2024/03/01 09:07:52;;;;;;;12.80;8.15;;;;;;;;;;5064973;28;20048;-71
2024/03/01 09:10:31;;;;;;;15.63;7.70;;;;;;;;;;5070316;28;20101;-72
2024/03/01 09:12:58;;;;;;;16.05;8.18;;;;;;;;;;5073993;28;20111;-72
2024/03/01 09:15:26;;;;;;;12.88;7.50;;;;;;;;;;5087822;28;20051;-71
2024/03/01 09:17:54;;;;;;;12.77;9.10;;;;;;;;;;5063964;28;20072;-71
2024/03/01 09:20:34;;;;;;;9.55;7.28;;;;;;;;;;5085237;28;20051;-71
2024/03/01 09:23:03;;;;;;;13.48;7.90;;;;;;;;;;5072239;28;20075;-71
2024/03/01 09:25:35;;;;;;;13.45;9.07;;;;;;;;;;5076069;28;20679;-71
2024/03/01 09:28:02;;;;;;;12.90;8.02;;;;;;;;;;5066989;28;20131;-72
2024/03/01 09:30:28;;;;;;;9.93;7.35;;;;;;;;;;5077551;28;20060;-71
2024/03/01 09:32:55;;;;;;;11.75;6.53;;;;;;;;;;5073146;28;20066;-71
2024/03/01 09:35:23;;;;;;;9.10;5.32;;;;;;;;;;5079919;28;20525;-70
2024/03/01 09:37:49;;;;;;;12.30;6.72;;;;;;;;;;5045461;28;20055;-71
2024/03/01 09:40:34;;;;;;;11.52;6.05;;;;;;;;;;5076384;28;20080;-71
2024/03/01 09:43:08;;;;;;;10.15;6.53;;;;;;;;;;5074277;28;20105;-71
2024/03/01 09:45:53;;;;;;;14.10;7.78;;;;;;;;;;5078672;28;20671;-71
2024/03/01 09:48:39;;;;;;;13.40;6.70;;;;;;;;;;5069624;28;20677;-73
2024/03/01 09:51:12;;;;;;;8.43;5.30;;;;;;;;;;5072041;28;20055;-73
2024/03/01 09:53:41;;;;;;;11.07;6.13;;;;;;;;;;5054042;28;20040;-73
2024/03/01 09:56:08;;;;;;;9.63;4.85;;;;;;;;;;5086944;28;20499;-73
2024/03/01 09:58:46;;;;;;;8.73;4.35;;;;;;;;;;5080917;28;20064;-72
2024/03/01 10:01:21;;;;;;;11.05;4.80;;;;;;;;;;5079298;28;20064;-73
2024/03/01 10:03:53;;;;;;;8.98;4.07;;;;;;;;;;5066125;28;20423;-73
2024/03/01 10:06:38;;;;;;;10.70;4.93;;;;;;;;;;5070674;28;20044;-73
2024/03/01 10:09:12;;;;;;;10.13;4.65;;;;;;;;;;5075253;28;20051;-72
2024/03/01 10:11:51;;;;;;;9.35;4.63;;;;;;;;;;5077429;28;20060;-73
2024/03/01 10:14:20;;;;;;;6.35;3.70;;;;;;;;;;5078727;28;20051;-73
2024/03/01 10:17:00;;;;;;;7.53;4.13;;;;;;;;;;5067999;28;20048;-73
2024/03/01 10:19:34;;;;;;;7.05;3.50;;;;;;;;;;5075450;28;20052;-73
2024/03/01 10:22:19;;;;;;;6.15;3.45;;;;;;;;;;5079088;28;20056;-73
2024/03/01 10:25:04;;;;;;;7.15;3.13;;;;;;;;;;5068137;28;20720;-73
2024/03/01 10:27:31;;;;;;;5.80;3.28;;;;;;;;;;5051496;28;20048;-73
2024/03/01 10:30:03;;;;;;;7.78;3.10;;;;;;;;;;5073968;28;20075;-73
2024/03/01 10:32:48;;;;;;;8.82;3.67;;;;;;;;;;5056366;28;20089;-73
2024/03/01 10:35:19;;;;;;;9.60;3.28;;;;;;;;;;5067985;28;20048;-73
2024/03/01 10:37:55;;;;;;;8.15;3.00;;;;;;;;;;5066760;28;20044;-73
2024/03/01 10:40:22;;;;;;;7.55;3.22;;;;;;;;;;5075806;28;20051;-71
2024/03/01 10:43:06;;;;;;;8.00;3.38;;;;;;;;;;5078822;28;20097;-72
2024/03/01 10:45:38;;;;;;;8.30;2.95;;;;;;;;;;5074580;28;20438;-72
2024/03/01 10:48:05;;;;;;;5.97;2.95;;;;;;;;;;5067790;28;20142;-72
2024/03/01 10:50:34;;;;;;;7.90;3.03;;;;;;;;;;5075367;28;20058;-72
2024/03/01 10:53:15;;;;;;;9.15;3.10;;;;;;;;;;5075494;28;20128;-71
2024/03/01 10:56:03;;;;;;;7.68;3.55;;;;;;;;;;5078561;28;20436;-72
2024/03/01 10:58:44;;;;;;;9.52;3.28;;;;;;;;;;5073339;28;20408;-72
2024/03/01 11:01:17;;;;;;;8.95;3.60;;;;;;;;;;5059787;28;20469;-71
2024/03/01 11:03:49;;;;;;;6.25;2.83;;;;;;;;;;5063749;28;20528;-71
2024/03/01 11:06:16;;;;;;;6.88;2.53;;;;;;;;;;5088502;28;20043;-70
2024/03/01 11:08:54;;;;;;;6.75;2.83;;;;;;;;;;5067328;28;20036;-70
2024/03/01 11:11:27;;;;;;;8.40;2.92;;;;;;;;;;5078165;28;20041;-70
2024/03/01 11:13:56;;;;;;;5.63;2.85;;;;;;;;;;5068238;28;20052;-72
2024/03/01 11:16:25;;;;;;;6.18;2.90;;;;;;;;;;5071594;28;20102;-73
2024/03/01 11:18:53;;;;;;;6.78;2.90;;;;;;;;;;5078361;28;20515;-70
2024/03/01 11:21:23;;;;;;;6.32;3.03;;;;;;;;;;5075406;28;20102;-70
2024/03/01 11:23:49;;;;;;;9.73;3.40;;;;;;;;;;5089635;28;20062;-72
2024/03/01 11:26:26;;;;;;;4.70;2.53;;;;;;;;;;5061958;28;20416;-71
2024/03/01 11:28:55;;;;;;;5.53;2.92;;;;;;;;;;5070427;28;20084;-71
2024/03/01 11:31:26;;;;;;;5.55;2.55;;;;;;;;;;5072787;28;20048;-70
2024/03/01 11:33:54;;;;;;;5.28;2.47;;;;;;;;;;5066588;28;20056;-70
2024/03/01 11:36:21;;;;;;;;;;;;;;;;;;5065953;28;20277;-71
2024/03/01 11:38:50;;;;;;;4.10;2.20;;;;;;;;;;5074619;28;19924;-72
2024/03/01 11:41:23;;;;;;;5.63;2.20;;;;;;;;;;5083941;28;20052;-71
2024/03/01 11:43:49;;;;;;;5.85;1.88;;;;;;;;;;5068240;28;20044;-70
2024/03/01 11:46:39;;;;;;;6.10;2.53;;;;;;;;;;5071481;28;20048;-71
2024/03/01 11:49:11;;;;;;;5.00;2.25;;;;;;;;;;5090792;28;20134;-71
2024/03/01 11:51:38;;;;;;;4.28;1.80;;;;;;;;;;5075229;28;20075;-72
2024/03/01 11:54:29;;;;;;;4.25;1.88;;;;;;;;;;5072221;28;20101;-70
2024/03/01 11:56:55;;;;;;;3.35;1.60;;;;;;;;;;5070782;28;20503;-71
2024/03/01 11:59:47;;;;;;;4.00;1.70;;;;;;;;;;5065500;28;20052;-72
2024/03/01 12:02:32;;;;;;;5.40;1.80;;;;;;;;;;5068417;28;20102;-72
2024/03/01 12:05:21;;;;;;;3.05;1.80;;;;;;;;;;5066989;28;20083;-72
2024/03/01 12:08:11;;;;;;;7.25;1.60;;;;;;;;;;5067036;28;20072;-70
2024/03/01 12:10:56;;;;;;;3.00;1.50;;;;;;;;;;5054897;28;20119;-72
2024/03/01 12:13:23;;;;;;;4.65;1.45;;;;;;;;;;5066593;28;20194;-70
2024/03/01 12:15:49;;;;;;;3.92;1.40;;;;;;;;;;5067598;28;20669;-73
2024/03/01 12:18:33;;;;;;;4.03;1.40;;;;;;;;;;5082048;28;20056;-73
2024/03/01 12:21:08;;;;;;;3.13;1.65;;;;;;;;;;5079754;28;20051;-73
2024/03/01 12:23:42;;;;;;;4.63;1.35;;;;;;;;;;5066248;28;20052;-72
2024/03/01 12:26:09;;;;;;;4.97;1.38;;;;;;;;;;5073098;28;20049;-72
2024/03/01 12:28:48;;;;;;;1.60;0.95;;;;;;;;;;5069268;28;20049;-73
2024/03/01 12:31:21;;;;;;;5.47;1.20;;;;;;;;;;5078063;28;20042;-73
2024/03/01 12:34:11;;;;;;;3.40;1.30;;;;;;;;;;5080644;28;20044;-73
2024/03/01 12:36:42;;;;;;;1.88;0.98;;;;;;;;;;5037005;28;20048;-74
2024/03/01 12:39:18;;;;;;;2.90;1.17;;;;;;;;;;5070436;28;20130;-73
2024/03/01 12:41:51;;;;;;;2.58;1.40;;;;;;;;;;5083569;28;20036;-73
2024/03/01 12:44:27;;;;;;;2.63;1.10;;;;;;;;;;5072853;28;20052;-73
2024/03/01 12:46:54;;;;;;;3.50;1.27;;;;;;;;;;5072364;28;20048;-73
2024/03/01 12:49:22;;;;;;;3.92;0.90;;;;;;;;;;5075519;28;20565;-73
2024/03/01 12:51:52;;;;;;;4.03;1.37;;;;;;;;;;5070927;28;20044;-73
2024/03/01 12:54:22;;;;;;;2.20;1.17;;;;;;;;;;5079572;28;20048;-74
2024/03/01 12:56:56;;;;;;;2.80;1.17;;;;;;;;;;5081076;28;20480;-74
2024/03/01 12:59:42;;;;;;;2.88;1.00;;;;;;;;;;5080195;28;20143;-73
2024/03/01 13:02:25;;;;;;;3.95;1.20;;;;;;;;;;5065264;28;20063;-73
2024/03/01 13:05:12;;;;;;;2.60;1.00;;;;;;;;;;5065101;28;20497;-72
2024/03/01 13:07:39;;;;;;;5.03;1.00;;;;;;;;;;5076172;28;20138;-72
2024/03/01 13:10:07;;;;;;;1.87;0.80;;;;;;;;;;5092581;28;20072;-72
2024/03/01 13:12:35;;;;;;;1.17;0.70;;;;;;;;;;5075720;28;20055;-73
2024/03/01 13:15:07;;;;;;;1.13;0.68;;;;;;;;;;5069086;28;20084;-73
2024/03/01 13:17:41;;;;;;;2.05;0.80;;;;;;;;;;5073374;28;20123;-73
2024/03/01 13:20:23;;;;;;;2.63;0.80;;;;;;;;;;5062334;28;20048;-72
2024/03/01 13:22:53;;;;;;;2.08;0.88;;;;;;;;;;5069138;28;20451;-72
2024/03/01 13:25:23;;;;;;;2.92;0.90;;;;;;;;;;5080497;28;20052;-72
2024/03/01 13:27:50;;;;;;;1.63;0.93;;;;;;;;;;5065157;28;20083;-72
2024/03/01 13:30:21;;;;;;;1.92;0.70;;;;;;;;;;5079525;28;20036;-72
2024/03/01 13:32:50;;;;;;;1.33;0.90;;;;;;;;;;5064220;28;20411;-73
2024/03/01 13:35:21;;;;;;;2.50;0.88;;;;;;;;;;5079496;28;20044;-72
2024/03/01 13:38:03;;;;;;;3.15;0.85;;;;;;;;;;5076286;28;20514;-72
2024/03/01 13:40:56;;;;;;;1.45;0.93;;;;;;;;;;5067896;28;20395;-73
2024/03/01 13:43:26;;;;;;;1.58;0.90;;;;;;;;;;5075512;28;21007;-71
2024/03/01 13:45:58;;;;;;;1.45;0.70;;;;;;;;;;5079301;28;20055;-71
2024/03/01 13:48:26;;;;;;;3.00;0.85;;;;;;;;;;5076083;28;20055;-72
2024/03/01 13:50:52;;;;;;;1.15;0.70;;;;;;;;;;5078765;28;20075;-72
2024/03/01 13:53:19;;;;;;;3.50;0.90;;;;;;;;;;5067610;28;20102;-72
2024/03/01 13:55:47;;;;;;;3.13;0.90;;;;;;;;;;5077813;28;20040;-72
2024/03/01 13:58:18;;;;;;;1.50;0.73;;;;;;;;;;5076552;28;20776;-72
2024/03/01 14:00:49;;;;;;;0.88;0.65;;;;;;;;;;5066388;28;20040;-72
2024/03/01 14:03:16;;;;;;;0.70;0.70;;;;;;;;;;5078849;28;20043;-72
2024/03/01 14:05:43;;;;;;;1.98;0.75;;;;;;;;;;5062776;28;20429;-72
2024/03/01 14:08:11;;;;;;;3.67;1.00;;;;;;;;;;5077315;28;20045;-72
2024/03/01 14:10:40;;;;;;;1.77;0.70;;;;;;;;;;5056049;28;20074;-73
2024/03/01 14:13:10;;;;;;;2.83;0.85;;;;;;;;;;5055419;28;20080;-72
2024/03/01 14:15:36;;;;;;;2.78;0.88;;;;;;;;;;5072606;28;20036;-72
2024/03/01 14:18:03;;;;;;;2.70;1.00;;;;;;;;;;5071237;28;20056;-73
2024/03/01 14:20:29;;;;;;;3.50;0.90;;;;;;;;;;5075451;28;20443;-72
2024/03/01 14:22:56;;;;;;;2.35;0.80;;;;;;;;;;5073109;28;20419;-72
2024/03/01 14:25:26;;;;;;;2.03;0.68;;;;;;;;;;5070990;28;20055;-72
2024/03/01 14:27:54;;;;;;;1.85;1.02;;;;;;;;;;5078617;28;20671;-71
2024/03/01 14:30:22;;;;;;;2.70;1.25;;;;;;;;;;5075454;28;20044;-72
2024/03/01 14:33:08;;;;;;;1.33;0.63;;;;;;;;;;5080970;28;20043;-72
2024/03/01 14:35:35;;;;;;;8.35;1.20;;;;;;;;;;5072176;28;20127;-71
2024/03/01 14:38:11;;;;;;;1.45;0.70;;;;;;;;;;5078586;28;20102;-71
2024/03/01 14:40:38;;;;;;;2.72;0.90;;;;;;;;;;5079057;28;20087;-72
2024/03/01 14:43:07;;;;;;;3.22;0.82;;;;;;;;;;5067411;28;20131;-72
2024/03/01 14:45:38;;;;;;;4.00;1.10;;;;;;;;;;5051432;28;20656;-73
2024/03/01 14:48:11;;;;;;;4.32;0.98;;;;;;;;;;5068225;28;20044;-72
2024/03/01 14:50:42;;;;;;;1.92;0.65;;;;;;;;;;5079640;28;20052;-72
2024/03/01 14:53:13;;;;;;;2.58;0.70;;;;;;;;;;5072086;28;20159;-71
2024/03/01 14:55:40;;;;;;;2.70;1.02;;;;;;;;;;5069947;28;20099;-72